createdAt,value
2023-03-03T00:00:04.125Z,27.90
2023-03-03T00:01:04.080Z,27.90
2023-03-03T00:02:03.872Z,25.30
2023-03-03T00:03:04.215Z,25.30
2023-03-03T00:04:04.164Z,25.30
2023-03-03T00:05:04.198Z,25.30
2023-03-03T00:06:03.551Z,25.30
2023-03-03T00:07:04.394Z,27.80
2023-03-03T00:08:03.857Z,27.80
2023-03-03T00:09:04.169Z,27.80
2023-03-03T00:10:04.174Z,27.80
2023-03-03T00:11:04.268Z,27.80
2023-03-03T00:12:03.436Z,26.90
2023-03-03T00:13:04.158Z,26.90
2023-03-03T00:14:03.546Z,26.90
2023-03-03T00:15:03.590Z,26.90
2023-03-03T00:16:03.793Z,26.90
2023-03-03T00:17:03.504Z,26.10
2023-03-03T00:18:03.757Z,26.10
2023-03-03T00:19:03.966Z,26.10
2023-03-03T00:20:04.037Z,26.10
2023-03-03T00:21:04.154Z,26.10
2023-03-03T00:22:03.549Z,29.30
2023-03-03T00:23:03.794Z,29.30
2023-03-03T00:24:03.961Z,29.30
2023-03-03T00:25:04.029Z,29.30
2023-03-03T00:26:03.862Z,29.30
2023-03-03T00:27:04.469Z,25.10
2023-03-03T00:28:03.882Z,25.10
2023-03-03T00:29:04.114Z,25.10
2023-03-03T00:30:04.158Z,25.10
2023-03-03T00:31:04.005Z,25.10
2023-03-03T00:32:03.782Z,25.10
2023-03-03T00:33:03.126Z,25.10
2023-03-03T00:34:03.503Z,25.10
2023-03-03T00:35:03.663Z,25.10
2023-03-03T00:36:03.181Z,25.10
2023-03-03T00:37:03.193Z,25.00
2023-03-03T00:38:03.661Z,25.00
2023-03-03T00:39:03.814Z,25.00
2023-03-03T00:40:03.762Z,25.00
2023-03-03T00:41:03.834Z,25.00
2023-03-03T00:42:03.240Z,23.70
2023-03-03T00:43:03.741Z,23.70
2023-03-03T00:44:03.490Z,23.70
2023-03-03T00:45:03.749Z,23.70
2023-03-03T00:46:03.758Z,23.70
2023-03-03T00:47:03.846Z,23.20
2023-03-03T00:48:04.213Z,23.20
2023-03-03T00:49:03.768Z,23.20
2023-03-03T00:50:04.067Z,23.20
2023-03-03T00:51:03.937Z,23.20
2023-03-03T00:52:03.240Z,24.00
2023-03-03T00:53:03.146Z,24.00
2023-03-03T00:54:03.525Z,24.00
2023-03-03T00:55:03.458Z,24.00
2023-03-03T00:56:03.583Z,24.00
2023-03-03T00:57:03.380Z,21.80
2023-03-03T00:58:03.712Z,21.80
2023-03-03T00:59:03.819Z,21.80
2023-03-03T01:00:03.238Z,21.80
2023-03-03T01:01:03.343Z,21.80
2023-03-03T01:02:04.683Z,23.80
2023-03-03T01:03:04.799Z,23.80
2023-03-03T01:04:04.927Z,23.80
2023-03-03T01:05:04.303Z,23.80
2023-03-03T01:06:04.583Z,23.80
2023-03-03T01:07:03.687Z,26.30
2023-03-03T01:08:03.601Z,26.30
2023-03-03T01:09:04.038Z,26.30
2023-03-03T01:10:04.147Z,26.30
2023-03-03T01:11:03.596Z,26.30
2023-03-03T01:12:04.466Z,26.80
2023-03-03T01:13:04.445Z,26.80
2023-03-03T01:14:04.149Z,26.80
2023-03-03T01:15:03.911Z,26.80
2023-03-03T01:16:04.037Z,26.80
2023-03-03T01:17:04.281Z,21.60
2023-03-03T01:18:04.269Z,21.60
2023-03-03T01:19:04.202Z,21.60
2023-03-03T01:20:04.668Z,21.60
2023-03-03T01:21:04.401Z,21.60
2023-03-03T01:22:03.509Z,20.30
2023-03-03T01:23:03.586Z,20.30
2023-03-03T01:24:03.686Z,20.30
2023-03-03T01:25:03.808Z,20.30
2023-03-03T01:26:03.510Z,20.30
2023-03-03T01:27:03.901Z,22.50
2023-03-03T01:28:03.586Z,22.50
2023-03-03T01:29:03.604Z,22.50
2023-03-03T01:30:03.501Z,22.50
2023-03-03T01:31:03.581Z,22.50
2023-03-03T01:32:03.770Z,22.40
2023-03-03T01:33:03.799Z,22.40
2023-03-03T01:34:04.230Z,22.40
2023-03-03T01:35:04.316Z,22.40
2023-03-03T01:36:03.722Z,22.40
2023-03-03T01:37:03.901Z,21.40
2023-03-03T01:38:03.928Z,21.40
2023-03-03T01:39:04.404Z,21.40
2023-03-03T01:40:03.866Z,21.40
2023-03-03T01:41:03.907Z,21.40
2023-03-03T01:42:03.935Z,23.30
2023-03-03T01:43:03.961Z,23.30
2023-03-03T01:44:03.967Z,23.30
2023-03-03T01:45:04.486Z,23.30
2023-03-03T01:46:03.828Z,23.30
2023-03-03T01:47:04.099Z,22.80
2023-03-03T01:48:04.265Z,22.80
2023-03-03T01:49:04.302Z,22.80
2023-03-03T01:50:04.311Z,22.80
2023-03-03T01:51:04.181Z,22.80
2023-03-03T01:52:03.238Z,20.70
2023-03-03T01:53:03.672Z,20.70
2023-03-03T01:54:03.806Z,20.70
2023-03-03T01:55:03.798Z,20.70
2023-03-03T01:56:03.814Z,20.70
2023-03-03T01:57:03.830Z,24.40
2023-03-03T01:58:03.784Z,24.40
2023-03-03T01:59:04.084Z,24.40
2023-03-03T02:00:04.133Z,24.40
2023-03-03T02:01:04.286Z,24.40
2023-03-03T02:02:04.042Z,25.60
2023-03-03T02:03:04.269Z,25.60
2023-03-03T02:04:03.891Z,25.60
2023-03-03T02:05:03.803Z,25.60
2023-03-03T02:06:03.860Z,25.60
2023-03-03T02:07:04.537Z,23.40
2023-03-03T02:08:04.826Z,23.40
2023-03-03T02:09:04.494Z,23.40
2023-03-03T02:10:04.389Z,23.40
2023-03-03T02:11:04.668Z,23.40
2023-03-03T02:12:03.887Z,26.40
2023-03-03T02:13:04.197Z,26.40
2023-03-03T02:14:03.839Z,26.40
2023-03-03T02:15:03.888Z,26.40
2023-03-03T02:16:03.810Z,26.40
2023-03-03T02:17:03.920Z,25.50
2023-03-03T02:18:04.247Z,25.50
2023-03-03T02:19:04.258Z,25.50
2023-03-03T02:20:04.017Z,25.50
2023-03-03T02:21:03.722Z,25.50
2023-03-03T02:22:04.611Z,24.30
2023-03-03T02:23:04.670Z,24.30
2023-03-03T02:24:04.370Z,24.30
2023-03-03T02:25:04.475Z,24.30
2023-03-03T02:26:04.532Z,24.30
2023-03-03T02:27:03.721Z,25.60
2023-03-03T02:28:03.633Z,25.60
2023-03-03T02:29:03.989Z,25.60
2023-03-03T02:30:03.989Z,25.60
2023-03-03T02:31:03.991Z,25.60
2023-03-03T02:32:04.497Z,25.30
2023-03-03T02:33:04.350Z,25.30
2023-03-03T02:34:04.456Z,25.30
2023-03-03T02:35:04.725Z,25.30
2023-03-03T02:36:04.128Z,25.30
2023-03-03T02:37:03.477Z,27.60
2023-03-03T02:38:03.632Z,27.60
2023-03-03T02:39:03.605Z,27.60
2023-03-03T02:40:03.560Z,27.60
2023-03-03T02:41:03.236Z,27.60
2023-03-03T02:42:03.993Z,24.40
2023-03-03T02:43:03.592Z,24.40
2023-03-03T02:44:03.920Z,24.40
2023-03-03T02:45:03.985Z,24.40
2023-03-03T02:46:04.017Z,24.40
2023-03-03T02:47:03.898Z,25.20
2023-03-03T02:48:04.246Z,25.20
2023-03-03T02:49:03.834Z,25.20
2023-03-03T02:50:03.999Z,25.20
2023-03-03T02:51:04.073Z,25.20
2023-03-03T02:52:04.101Z,24.00
2023-03-03T02:53:04.148Z,24.00
2023-03-03T02:54:04.187Z,24.00
2023-03-03T02:55:04.212Z,24.00
2023-03-03T02:56:04.586Z,24.00
2023-03-03T02:57:03.702Z,22.90
2023-03-03T02:58:03.216Z,22.90
2023-03-03T02:59:03.291Z,22.90
2023-03-03T03:00:03.204Z,22.90
2023-03-03T03:01:03.885Z,22.90
2023-03-03T03:02:03.577Z,25.20
2023-03-03T03:03:03.627Z,25.20
2023-03-03T03:04:04.113Z,25.20
2023-03-03T03:05:03.497Z,25.20
2023-03-03T03:06:03.541Z,25.20
2023-03-03T03:07:04.045Z,24.50
2023-03-03T03:08:04.254Z,24.50
2023-03-03T03:09:04.612Z,24.50
2023-03-03T03:10:03.958Z,24.50
2023-03-03T03:11:04.231Z,24.50
2023-03-03T03:12:04.324Z,23.50
2023-03-03T03:13:04.488Z,23.50
2023-03-03T03:14:03.903Z,23.50
2023-03-03T03:15:03.833Z,23.50
2023-03-03T03:16:04.363Z,23.50
2023-03-03T03:17:04.283Z,23.60
2023-03-03T03:18:04.334Z,23.60
2023-03-03T03:19:04.545Z,23.60
2023-03-03T03:20:04.049Z,23.60
2023-03-03T03:21:04.312Z,23.60
2023-03-03T03:22:03.618Z,24.20
2023-03-03T03:23:03.970Z,24.20
2023-03-03T03:24:03.833Z,24.20
2023-03-03T03:25:03.765Z,24.20
2023-03-03T03:26:03.624Z,24.20
2023-03-03T03:27:04.584Z,29.90
2023-03-03T03:28:03.979Z,29.90
2023-03-03T03:29:04.320Z,29.90
2023-03-03T03:30:04.399Z,29.90
2023-03-03T03:31:04.099Z,29.90
2023-03-03T03:32:04.535Z,29.40
2023-03-03T03:33:04.162Z,29.40
2023-03-03T03:34:04.456Z,29.40
2023-03-03T03:35:04.630Z,29.40
2023-03-03T03:36:04.224Z,29.40
2023-03-03T03:37:04.223Z,27.80
2023-03-03T03:38:03.654Z,27.80
2023-03-03T03:39:03.773Z,27.80
2023-03-03T03:40:03.829Z,27.80
2023-03-03T03:41:04.138Z,27.80
2023-03-03T03:42:03.809Z,24.00
2023-03-03T03:43:03.823Z,24.00
2023-03-03T03:44:04.274Z,24.00
2023-03-03T03:45:04.108Z,24.00
2023-03-03T03:46:04.276Z,24.00
2023-03-03T03:47:04.542Z,24.30
2023-03-03T03:48:04.045Z,24.30
2023-03-03T03:49:04.075Z,24.30
2023-03-03T03:50:04.495Z,24.30
2023-03-03T03:51:04.154Z,28.20
2023-03-03T03:52:03.438Z,28.20
2023-03-03T03:53:03.583Z,28.20
2023-03-03T03:54:03.414Z,28.20
2023-03-03T03:55:03.540Z,28.20
2023-03-03T03:56:03.582Z,26.10
2023-03-03T03:57:03.869Z,26.10
2023-03-03T03:58:04.096Z,26.10
2023-03-03T03:59:03.851Z,26.10
2023-03-03T04:00:03.981Z,26.10
2023-03-03T04:01:04.108Z,25.50
2023-03-03T04:02:03.862Z,25.50
2023-03-03T04:03:03.837Z,25.50
2023-03-03T04:04:03.974Z,25.50
2023-03-03T04:05:04.053Z,25.50
2023-03-03T04:06:03.779Z,26.90
2023-03-03T04:07:04.562Z,26.90
2023-03-03T04:08:03.929Z,26.90
2023-03-03T04:09:04.505Z,26.90
2023-03-03T04:10:03.985Z,26.90
2023-03-03T04:11:04.121Z,27.70
2023-03-03T04:12:03.455Z,27.70
2023-03-03T04:13:03.564Z,27.70
2023-03-03T04:14:03.707Z,27.70
2023-03-03T04:15:03.658Z,27.70
2023-03-03T04:16:03.697Z,28.90
2023-03-03T04:17:04.159Z,28.90
2023-03-03T04:18:03.632Z,28.90
2023-03-03T04:19:04.010Z,28.90
2023-03-03T04:20:04.034Z,28.90
2023-03-03T04:21:03.678Z,30.20
2023-03-03T04:22:04.018Z,30.20
2023-03-03T04:23:04.377Z,30.20
2023-03-03T04:24:04.461Z,30.20
2023-03-03T04:25:04.543Z,30.20
2023-03-03T04:26:04.594Z,31.30
2023-03-03T04:27:03.021Z,31.30
2023-03-03T04:28:05.520Z,31.30
2023-03-03T04:29:03.311Z,31.30
2023-03-03T04:30:03.339Z,31.30
2023-03-03T04:31:03.077Z,28.00
2023-03-03T04:32:03.755Z,28.00
2023-03-03T04:33:03.324Z,28.00
2023-03-03T04:34:03.912Z,28.00
2023-03-03T04:35:08.270Z,28.00
2023-03-03T04:36:03.614Z,26.80
2023-03-03T04:37:03.921Z,26.80
2023-03-03T04:38:04.075Z,26.80
2023-03-03T04:39:04.304Z,26.80
2023-03-03T04:40:04.283Z,26.80
2023-03-03T04:41:03.729Z,26.50
2023-03-03T04:42:04.316Z,26.50
2023-03-03T04:43:03.760Z,26.50
2023-03-03T04:44:04.066Z,26.50
2023-03-03T04:45:04.377Z,26.50
2023-03-03T04:46:03.869Z,28.60
2023-03-03T04:47:03.066Z,28.60
2023-03-03T04:48:03.573Z,28.60
2023-03-03T04:49:03.090Z,28.60
2023-03-03T04:50:03.035Z,28.60
2023-03-03T04:51:03.355Z,28.90
2023-03-03T04:52:03.526Z,28.90
2023-03-03T04:53:03.990Z,28.90
2023-03-03T04:54:03.862Z,28.90
2023-03-03T04:55:03.493Z,28.90
2023-03-03T04:56:03.654Z,28.60
2023-03-03T04:57:03.166Z,28.60
2023-03-03T04:58:03.333Z,28.60
2023-03-03T04:59:03.413Z,28.60
2023-03-03T05:00:03.367Z,28.60
2023-03-03T05:01:03.503Z,32.20
2023-03-03T05:02:04.468Z,32.20
2023-03-03T05:03:05.037Z,32.20
2023-03-03T05:04:04.745Z,32.20
2023-03-03T05:05:04.854Z,32.20
2023-03-03T05:06:04.542Z,29.80
2023-03-03T05:07:03.797Z,29.80
2023-03-03T05:08:03.904Z,29.80
2023-03-03T05:09:03.651Z,29.80
2023-03-03T05:10:03.680Z,29.80
2023-03-03T05:11:03.764Z,38.10
2023-03-03T05:12:03.814Z,38.10
2023-03-03T05:13:03.960Z,38.10
2023-03-03T05:14:04.103Z,38.10
2023-03-03T05:15:04.196Z,38.10
2023-03-03T05:16:04.265Z,30.00
2023-03-03T05:17:04.320Z,30.00
2023-03-03T05:18:04.493Z,30.00
2023-03-03T05:19:04.338Z,30.00
2023-03-03T05:20:04.689Z,30.00
2023-03-03T05:21:04.801Z,30.90
2023-03-03T05:22:03.998Z,30.90
2023-03-03T05:23:04.255Z,30.90
2023-03-03T05:24:03.887Z,30.90
2023-03-03T05:25:03.954Z,30.90
2023-03-03T05:26:03.924Z,36.10
2023-03-03T05:27:04.105Z,36.10
2023-03-03T05:28:04.686Z,36.10
2023-03-03T05:29:04.288Z,36.10
2023-03-03T05:30:04.401Z,36.10
2023-03-03T05:31:04.196Z,32.80
2023-03-03T05:32:04.577Z,32.80
2023-03-03T05:33:04.675Z,32.80
2023-03-03T05:34:04.063Z,32.80
2023-03-03T05:35:04.474Z,32.80
2023-03-03T05:36:04.634Z,35.60
2023-03-03T05:37:03.790Z,35.60
2023-03-03T05:38:05.485Z,35.60
2023-03-03T05:39:04.071Z,35.60
2023-03-03T05:40:03.999Z,35.60
2023-03-03T05:41:03.500Z,36.60
2023-03-03T05:42:04.062Z,36.60
2023-03-03T05:43:04.148Z,36.60
2023-03-03T05:44:03.964Z,36.60
2023-03-03T05:45:03.845Z,36.60
2023-03-03T05:46:03.864Z,34.50
2023-03-03T05:47:03.725Z,34.50
2023-03-03T05:48:03.844Z,34.50
2023-03-03T05:49:03.821Z,34.50
2023-03-03T05:50:03.591Z,34.50
2023-03-03T05:51:04.087Z,34.90
2023-03-03T05:52:03.814Z,34.90
2023-03-03T05:53:03.889Z,34.90
2023-03-03T05:54:03.985Z,34.90
2023-03-03T05:55:03.457Z,34.90
2023-03-03T05:56:03.898Z,38.30
2023-03-03T05:57:03.601Z,38.30
2023-03-03T05:58:03.984Z,38.30
2023-03-03T05:59:04.141Z,38.30
2023-03-03T06:00:04.232Z,38.30
2023-03-03T06:01:03.887Z,34.40
2023-03-03T06:02:04.110Z,34.40
2023-03-03T06:03:04.328Z,34.40
2023-03-03T06:04:03.804Z,34.40
2023-03-03T06:05:03.714Z,34.40
2023-03-03T06:06:03.955Z,37.50
2023-03-03T06:07:04.124Z,37.50
2023-03-03T06:08:04.173Z,37.50
2023-03-03T06:09:04.151Z,37.50
2023-03-03T06:10:04.302Z,37.50
2023-03-03T06:11:03.836Z,41.00
2023-03-03T06:12:03.995Z,41.00
2023-03-03T06:13:03.478Z,41.00
2023-03-03T06:14:03.663Z,41.00
2023-03-03T06:15:03.592Z,41.00
2023-03-03T06:16:03.463Z,41.00
2023-03-03T06:17:03.430Z,41.00
2023-03-03T06:18:03.956Z,41.00
2023-03-03T06:19:03.514Z,41.00
2023-03-03T06:20:03.549Z,41.00
2023-03-03T06:21:03.831Z,38.80
2023-03-03T06:22:04.365Z,38.80
2023-03-03T06:23:04.332Z,38.80
2023-03-03T06:24:04.254Z,38.80
2023-03-03T06:25:04.420Z,38.80
2023-03-03T06:26:04.370Z,38.90
2023-03-03T06:27:04.640Z,38.90
2023-03-03T06:28:04.692Z,38.90
2023-03-03T06:29:04.273Z,38.90
2023-03-03T06:30:04.506Z,38.90
2023-03-03T06:31:04.123Z,39.90
2023-03-03T06:32:03.791Z,39.90
2023-03-03T06:33:03.402Z,39.90
2023-03-03T06:34:03.208Z,39.90
2023-03-03T06:35:03.116Z,39.90
2023-03-03T06:36:05.729Z,40.30
2023-03-03T06:37:03.248Z,40.30
2023-03-03T06:38:03.834Z,40.30
2023-03-03T06:39:03.356Z,40.30
2023-03-03T06:40:03.547Z,40.30
2023-03-03T06:41:03.482Z,47.70
2023-03-03T06:42:03.950Z,47.70
2023-03-03T06:43:03.734Z,47.70
2023-03-03T06:44:04.015Z,47.70
2023-03-03T06:45:03.399Z,47.70
2023-03-03T06:46:03.947Z,76.30
2023-03-03T06:47:04.074Z,76.30
2023-03-03T06:48:04.109Z,76.30
2023-03-03T06:49:03.563Z,76.30
2023-03-03T06:50:04.211Z,76.30
2023-03-03T06:51:04.110Z,54.70
2023-03-03T06:52:03.786Z,54.70
2023-03-03T06:53:04.093Z,54.70
2023-03-03T06:54:03.793Z,54.70
2023-03-03T06:55:03.961Z,54.70
2023-03-03T06:56:03.827Z,47.80
2023-03-03T06:57:03.685Z,47.80
2023-03-03T06:58:03.637Z,47.80
2023-03-03T06:59:04.280Z,47.80
2023-03-03T07:00:03.993Z,47.80
2023-03-03T07:01:03.761Z,115.80
2023-03-03T07:02:04.280Z,115.80
2023-03-03T07:03:04.242Z,115.80
2023-03-03T07:04:04.499Z,115.80
2023-03-03T07:05:04.179Z,115.80
2023-03-03T07:06:06.194Z,94.80
2023-03-03T07:07:03.680Z,94.80
2023-03-03T07:08:03.808Z,94.80
2023-03-03T07:09:03.646Z,94.80
2023-03-03T07:10:03.745Z,94.80
2023-03-03T07:11:03.852Z,70.70
2023-03-03T07:12:03.926Z,70.70
2023-03-03T07:13:04.317Z,70.70
2023-03-03T07:14:04.041Z,70.70
2023-03-03T07:15:04.327Z,70.70
2023-03-03T07:16:04.366Z,50.10
2023-03-03T07:17:03.371Z,50.10
2023-03-03T07:18:03.167Z,50.10
2023-03-03T07:19:03.345Z,50.10
2023-03-03T07:20:03.488Z,50.10
2023-03-03T07:21:03.683Z,47.00
2023-03-03T07:22:03.471Z,47.00
2023-03-03T07:23:03.652Z,47.00
2023-03-03T07:24:03.918Z,47.00
2023-03-03T07:25:03.564Z,47.00
2023-03-03T07:26:03.540Z,58.30
2023-03-03T07:27:04.068Z,58.30
2023-03-03T07:28:04.222Z,58.30
2023-03-03T07:29:04.062Z,58.30
2023-03-03T07:30:04.392Z,58.30
2023-03-03T07:31:04.255Z,85.50
2023-03-03T07:32:03.226Z,85.50
2023-03-03T07:33:03.534Z,85.50
2023-03-03T07:34:03.387Z,85.50
2023-03-03T07:35:03.349Z,85.50
2023-03-03T07:36:03.258Z,88.50
2023-03-03T07:37:03.701Z,88.50
2023-03-03T07:38:03.654Z,88.50
2023-03-03T07:39:03.964Z,88.50
2023-03-03T07:40:03.910Z,88.50
2023-03-03T07:41:03.551Z,82.20
2023-03-03T07:42:02.989Z,82.20
2023-03-03T07:43:03.247Z,82.20
2023-03-03T07:44:03.435Z,82.20
2023-03-03T07:45:03.141Z,82.20
2023-03-03T07:46:03.479Z,70.10
2023-03-03T07:47:03.926Z,70.10
2023-03-03T07:48:03.628Z,70.10
2023-03-03T07:49:03.994Z,70.10
2023-03-03T07:50:03.871Z,70.10
2023-03-03T07:51:03.943Z,61.80
2023-03-03T07:52:04.050Z,61.80
2023-03-03T07:53:04.122Z,61.80
2023-03-03T07:54:03.963Z,61.80
2023-03-03T07:55:03.925Z,61.80
2023-03-03T07:56:04.242Z,63.40
2023-03-03T07:57:03.197Z,63.40
2023-03-03T07:58:02.825Z,63.40
2023-03-03T07:59:03.508Z,63.40
2023-03-03T08:00:03.372Z,63.40
2023-03-03T08:01:03.575Z,60.30
2023-03-03T08:02:04.341Z,60.30
2023-03-03T08:03:04.291Z,60.30
2023-03-03T08:04:04.628Z,60.30
2023-03-03T08:05:05.321Z,60.30
2023-03-03T08:06:04.041Z,59.90
2023-03-03T08:07:04.530Z,59.90
2023-03-03T08:08:04.779Z,59.90
2023-03-03T08:09:04.396Z,59.90
2023-03-03T08:10:04.744Z,59.90
2023-03-03T08:11:04.866Z,62.00
2023-03-03T08:12:04.358Z,62.00
2023-03-03T08:13:04.659Z,62.00
2023-03-03T08:14:04.507Z,62.00
2023-03-03T08:15:04.627Z,62.00
2023-03-03T08:16:04.598Z,69.90
2023-03-03T08:17:04.749Z,69.90
2023-03-03T08:18:04.588Z,69.90
2023-03-03T08:19:04.831Z,69.90
2023-03-03T08:20:04.372Z,69.90
2023-03-03T08:21:04.883Z,60.20
2023-03-03T08:22:04.402Z,60.20
2023-03-03T08:23:04.196Z,60.20
2023-03-03T08:24:04.063Z,60.20
2023-03-03T08:25:04.325Z,60.20
2023-03-03T08:26:03.933Z,65.00
2023-03-03T08:27:04.097Z,65.00
2023-03-03T08:28:04.136Z,65.00
2023-03-03T08:29:04.334Z,65.00
2023-03-03T08:30:04.991Z,65.00
2023-03-03T08:31:16.849Z,61.90
2023-03-03T08:32:04.524Z,61.90
2023-03-03T08:33:04.539Z,61.90
2023-03-03T08:34:04.235Z,61.90
2023-03-03T08:35:04.584Z,61.90
2023-03-03T08:36:04.131Z,63.00
2023-03-03T08:37:04.006Z,63.00
2023-03-03T08:38:03.853Z,63.00
2023-03-03T08:39:04.087Z,63.00
2023-03-03T08:40:04.025Z,63.00
2023-03-03T08:41:03.892Z,63.30
2023-03-03T08:42:03.817Z,63.30
2023-03-03T08:43:03.933Z,63.30
2023-03-03T08:44:03.798Z,63.30
2023-03-03T08:45:04.226Z,63.30
2023-03-03T08:46:04.012Z,64.90
2023-03-03T08:47:03.972Z,64.90
2023-03-03T08:48:06.115Z,64.90
2023-03-03T08:49:04.016Z,64.90
2023-03-03T08:50:04.412Z,64.90
2023-03-03T08:51:03.968Z,67.80
2023-03-03T08:52:04.012Z,67.80
2023-03-03T08:53:04.038Z,67.80
2023-03-03T08:54:04.162Z,67.80
2023-03-03T08:55:04.417Z,67.80
2023-03-03T08:56:04.219Z,62.60
2023-03-03T08:57:03.789Z,62.60
2023-03-03T08:58:03.469Z,62.60
2023-03-03T08:59:03.744Z,62.60
2023-03-03T09:00:03.589Z,62.60
2023-03-03T09:01:03.369Z,64.90
2023-03-03T09:02:04.189Z,64.90
2023-03-03T09:03:04.422Z,64.90
2023-03-03T09:04:04.100Z,64.90
2023-03-03T09:05:04.147Z,64.90
2023-03-03T09:06:03.930Z,69.00
2023-03-03T09:07:04.635Z,69.00
2023-03-03T09:08:04.500Z,69.00
2023-03-03T09:09:04.677Z,69.00
2023-03-03T09:10:04.560Z,69.00
2023-03-03T09:11:04.466Z,63.60
2023-03-03T09:12:04.684Z,63.60
2023-03-03T09:13:04.910Z,63.60
2023-03-03T09:14:04.516Z,63.60
2023-03-03T09:15:04.548Z,63.60
2023-03-03T09:16:04.787Z,68.00
2023-03-03T09:17:04.344Z,68.00
2023-03-03T09:18:04.516Z,68.00
2023-03-03T09:19:04.069Z,68.00
2023-03-03T09:20:04.284Z,68.00
2023-03-03T09:21:03.868Z,63.30
2023-03-03T09:22:04.534Z,63.30
2023-03-03T09:23:04.399Z,63.30
2023-03-03T09:24:04.944Z,63.30
2023-03-03T09:25:04.347Z,63.30
2023-03-03T09:26:04.292Z,57.90
2023-03-03T09:27:04.015Z,57.90
2023-03-03T09:28:03.851Z,57.90
2023-03-03T09:29:03.786Z,57.90
2023-03-03T09:30:03.949Z,57.90
2023-03-03T09:31:07.131Z,57.20
2023-03-03T09:32:04.808Z,57.20
2023-03-03T09:33:04.892Z,57.20
2023-03-03T09:34:04.642Z,57.20
2023-03-03T09:42:03.993Z,52.90
2023-03-03T09:43:04.363Z,52.90
2023-03-03T09:44:04.282Z,52.90
2023-03-03T09:45:04.405Z,52.90
2023-03-03T09:46:04.250Z,62.70
2023-03-03T09:47:04.383Z,62.70
2023-03-03T09:48:04.598Z,62.70
2023-03-03T09:49:04.169Z,62.70
2023-03-03T09:50:04.235Z,62.70
2023-03-03T09:51:04.389Z,53.20
2023-03-03T09:52:03.133Z,53.20
2023-03-03T09:53:04.454Z,53.20
2023-03-03T09:54:04.660Z,53.20
2023-03-03T09:55:04.856Z,53.20
2023-03-03T09:56:04.413Z,52.60
2023-03-03T09:57:04.231Z,52.60
2023-03-03T09:58:10.446Z,52.60
2023-03-03T09:59:02.484Z,52.60
2023-03-03T10:00:02.524Z,52.60
2023-03-03T10:01:02.927Z,49.00
2023-03-03T10:02:04.881Z,49.00
2023-03-03T10:03:02.972Z,49.00
2023-03-03T10:04:02.777Z,49.00
2023-03-03T10:05:03.033Z,49.00
2023-03-03T10:06:03.980Z,46.20
2023-03-03T10:07:02.536Z,46.20
2023-03-03T10:08:02.582Z,46.20
2023-03-03T10:09:04.344Z,46.20
2023-03-03T10:10:02.799Z,46.20
2023-03-03T10:11:02.575Z,47.70
2023-03-03T10:12:03.255Z,47.70
2023-03-03T10:13:03.303Z,47.70
2023-03-03T10:14:03.519Z,47.70
2023-03-03T10:15:03.035Z,47.70
2023-03-03T10:16:04.170Z,63.90
2023-03-03T10:17:03.244Z,63.90
2023-03-03T10:18:03.086Z,63.90
2023-03-03T10:19:03.171Z,63.90
2023-03-03T10:20:03.045Z,63.90
2023-03-03T10:21:03.277Z,47.80
2023-03-03T10:22:02.921Z,47.80
2023-03-03T10:23:02.908Z,47.80
2023-03-03T10:24:02.685Z,47.80
2023-03-03T10:25:02.759Z,47.80
2023-03-03T10:26:02.512Z,46.70
2023-03-03T10:27:13.401Z,46.70
2023-03-03T10:28:02.867Z,46.70
2023-03-03T10:29:02.839Z,46.70
2023-03-03T10:30:02.808Z,46.70
2023-03-03T10:31:09.200Z,51.70
2023-03-03T10:32:03.282Z,51.70
2023-03-03T10:33:03.217Z,51.70
2023-03-03T10:34:03.140Z,51.70
2023-03-03T10:35:02.678Z,51.70
2023-03-03T10:36:07.455Z,44.00
2023-03-03T10:37:02.876Z,44.00
2023-03-03T10:38:02.888Z,44.00
2023-03-03T10:39:02.943Z,44.00
2023-03-03T10:40:02.861Z,44.00
2023-03-03T10:41:03.114Z,47.70
2023-03-03T10:42:02.264Z,47.70
2023-03-03T10:43:02.762Z,47.70
2023-03-03T10:44:03.011Z,47.70
2023-03-03T10:45:03.116Z,47.70
2023-03-03T10:46:03.331Z,47.90
2023-03-03T10:47:03.089Z,47.90
2023-03-03T10:48:03.043Z,47.90
2023-03-03T10:49:02.934Z,47.90
2023-03-03T10:50:02.679Z,47.90
2023-03-03T10:51:02.883Z,46.40
2023-03-03T10:52:03.398Z,46.40
2023-03-03T10:53:03.305Z,46.40
2023-03-03T10:54:03.056Z,46.40
2023-03-03T10:55:02.970Z,46.40
2023-03-03T10:56:03.242Z,47.30
2023-03-03T10:57:02.506Z,47.30
2023-03-03T10:58:02.239Z,47.30
2023-03-03T10:59:02.396Z,47.30
2023-03-03T11:00:02.803Z,47.30
2023-03-03T11:01:02.643Z,46.10
2023-03-03T11:02:03.098Z,46.10
2023-03-03T11:03:02.445Z,46.10
2023-03-03T11:04:02.852Z,46.10
2023-03-03T11:05:02.502Z,46.10
2023-03-03T11:06:02.855Z,42.10
2023-03-03T11:07:05.880Z,42.10
2023-03-03T11:08:02.435Z,42.10
2023-03-03T11:09:02.388Z,42.10
2023-03-03T11:10:02.093Z,42.10
2023-03-03T11:11:02.680Z,48.90
2023-03-03T11:12:02.786Z,48.90
2023-03-03T11:13:03.079Z,48.90
2023-03-03T11:14:03.220Z,48.90
2023-03-03T11:15:03.267Z,48.90
2023-03-03T11:16:02.935Z,44.60
2023-03-03T11:17:03.449Z,44.60
2023-03-03T11:18:02.922Z,44.60
2023-03-03T11:19:03.562Z,44.60
2023-03-03T11:20:03.274Z,44.60
2023-03-03T11:21:02.989Z,44.50
2023-03-03T11:22:02.078Z,44.50
2023-03-03T11:23:02.293Z,44.50
2023-03-03T11:24:02.340Z,44.50
2023-03-03T11:25:02.383Z,44.50
2023-03-03T11:26:02.492Z,47.40
2023-03-03T11:27:02.489Z,47.40
2023-03-03T11:28:02.742Z,47.40
2023-03-03T11:29:03.000Z,47.40
2023-03-03T11:30:02.547Z,47.40
2023-03-03T11:31:02.778Z,41.60
2023-03-03T11:32:02.663Z,41.60
2023-03-03T11:33:03.154Z,41.60
2023-03-03T11:34:03.008Z,41.60
2023-03-03T11:35:03.258Z,41.60
2023-03-03T11:36:03.224Z,42.70
2023-03-03T11:37:02.354Z,42.70
2023-03-03T11:38:02.769Z,42.70
2023-03-03T11:39:02.676Z,42.70
2023-03-03T11:40:02.927Z,42.70
2023-03-03T11:41:02.531Z,43.00
2023-03-03T11:42:02.043Z,43.00
2023-03-03T11:43:01.889Z,43.00
2023-03-03T11:44:02.072Z,43.00
2023-03-03T11:45:02.014Z,43.00
2023-03-03T11:46:02.392Z,40.70
2023-03-03T11:47:02.477Z,40.70
2023-03-03T11:48:02.352Z,40.70
2023-03-03T11:49:02.418Z,40.70
2023-03-03T11:50:02.957Z,40.70
2023-03-03T11:51:02.587Z,43.30
2023-03-03T11:52:02.520Z,43.30
2023-03-03T11:53:02.630Z,43.30
2023-03-03T11:54:02.599Z,43.30
2023-03-03T11:55:02.885Z,43.30
2023-03-03T11:56:02.821Z,42.10
2023-03-03T11:57:02.795Z,42.10
2023-03-03T11:58:02.702Z,42.10
2023-03-03T11:59:03.224Z,42.10
2023-03-03T12:00:03.153Z,42.10
2023-03-03T12:01:04.161Z,40.10
2023-03-03T12:02:02.283Z,40.10
2023-03-03T12:03:02.339Z,40.10
2023-03-03T12:04:02.744Z,40.10
2023-03-03T12:05:02.481Z,40.10
2023-03-03T12:06:02.225Z,44.00
2023-03-03T12:07:12.979Z,44.00
2023-03-03T12:08:02.879Z,44.00
2023-03-03T12:09:02.950Z,44.00
2023-03-03T12:10:02.901Z,44.00
2023-03-03T12:11:03.017Z,41.40
2023-03-03T12:12:02.456Z,41.40
2023-03-03T12:13:02.480Z,41.40
2023-03-03T12:14:02.495Z,41.40
2023-03-03T12:15:02.733Z,41.40
2023-03-03T12:16:02.753Z,40.10
2023-03-03T12:17:03.022Z,40.10
2023-03-03T12:18:02.936Z,40.10
2023-03-03T12:19:02.752Z,40.10
2023-03-03T12:20:03.040Z,40.10
2023-03-03T12:21:02.766Z,39.60
2023-03-03T12:22:02.873Z,39.60
2023-03-03T12:23:06.973Z,39.60
2023-03-03T12:24:04.764Z,39.60
2023-03-03T12:25:03.175Z,39.60
2023-03-03T12:26:03.046Z,38.70
2023-03-03T12:27:02.406Z,38.70
2023-03-03T12:28:02.683Z,38.70
2023-03-03T12:29:02.088Z,38.70
2023-03-03T12:30:04.945Z,38.70
2023-03-03T12:31:02.405Z,37.90
2023-03-03T12:32:02.668Z,37.90
2023-03-03T12:33:02.199Z,37.90
2023-03-03T12:34:02.362Z,37.90
2023-03-03T12:35:02.513Z,37.90
2023-03-03T12:36:02.963Z,39.80
2023-03-03T12:37:02.862Z,39.80
2023-03-03T12:38:02.868Z,39.80
2023-03-03T12:39:02.724Z,39.80
2023-03-03T12:40:02.807Z,39.80
2023-03-03T12:41:03.020Z,37.80
2023-03-03T12:42:04.417Z,37.80
2023-03-03T12:43:02.335Z,37.80
2023-03-03T12:44:01.950Z,37.80
2023-03-03T12:45:02.594Z,37.80
2023-03-03T12:46:02.302Z,38.10
2023-03-03T12:47:02.729Z,38.10
2023-03-03T12:48:02.799Z,38.10
2023-03-03T12:49:02.551Z,38.10
2023-03-03T12:50:07.467Z,38.10
2023-03-03T12:51:02.795Z,36.00
2023-03-03T12:52:02.292Z,36.00
2023-03-03T12:53:02.876Z,36.00
2023-03-03T12:54:01.905Z,36.00
2023-03-03T12:55:02.381Z,36.00
2023-03-03T12:56:02.203Z,33.70
2023-03-03T12:57:02.929Z,33.70
2023-03-03T12:58:02.547Z,33.70
2023-03-03T12:59:02.616Z,33.70